sensor_id;sensor_type;location;lat;lon;timestamp;P1;durP1;ratioP1;P2;durP2;ratioP2
48897;SDS011;34713;50.038;20.000;2024-03-23T00:53:42;40.50;;;26.00;;
48897;SDS011;34713;50.038;20.000;2024-03-23T00:56:09;41.30;;;26.30;;
48897;SDS011;34713;50.038;20.000;2024-03-23T00:58:35;40.40;;;26.90;;
48897;SDS011;34713;50.038;20.000;2024-03-23T01:01:01;41.00;;;26.70;;
48897;SDS011;34713;50.038;20.000;2024-03-23T01:03:30;40.10;;;25.20;;
48897;SDS011;34713;50.038;20.000;2024-03-23T01:06:00;38.90;;;26.50;;
48897;SDS011;34713;50.038;20.000;2024-03-23T01:08:27;38.60;;;25.10;;
48897;SDS011;34713;50.038;20.000;2024-03-23T01:10:56;36.50;;;25.30;;
48897;SDS011;34713;50.038;20.000;2024-03-23T01:13:27;41.10;;;24.40;;
48897;SDS011;34713;50.038;20.000;2024-03-23T01:15:54;40.90;;;25.60;;
48897;SDS011;34713;50.038;20.000;2024-03-23T01:18:22;35.80;;;24.50;;
48897;SDS011;34713;50.038;20.000;2024-03-23T01:20:49;35.20;;;24.60;;
48897;SDS011;34713;50.038;20.000;2024-03-23T01:23:15;39.80;;;24.90;;
48897;SDS011;34713;50.038;20.000;2024-03-23T01:25:42;38.50;;;24.50;;
48897;SDS011;34713;50.038;20.000;2024-03-23T01:28:08;38.70;;;25.50;;
48897;SDS011;34713;50.038;20.000;2024-03-23T01:30:35;39.70;;;24.80;;
48897;SDS011;34713;50.038;20.000;2024-03-23T01:33:02;38.40;;;25.30;;
48897;SDS011;34713;50.038;20.000;2024-03-23T01:35:31;31.80;;;22.70;;
48897;SDS011;34713;50.038;20.000;2024-03-23T01:37:58;34.90;;;22.70;;
48897;SDS011;34713;50.038;20.000;2024-03-23T01:40:24;32.60;;;22.50;;
48897;SDS011;34713;50.038;20.000;2024-03-23T01:42:57;34.60;;;23.80;;
48897;SDS011;34713;50.038;20.000;2024-03-23T01:45:24;36.10;;;23.80;;
48897;SDS011;34713;50.038;20.000;2024-03-23T01:47:51;37.20;;;24.10;;
48897;SDS011;34713;50.038;20.000;2024-03-23T01:50:21;31.70;;;22.60;;
48897;SDS011;34713;50.038;20.000;2024-03-23T01:52:50;34.80;;;24.00;;
48897;SDS011;34713;50.038;20.000;2024-03-23T01:55:16;37.30;;;23.40;;
48897;SDS011;34713;50.038;20.000;2024-03-23T01:57:43;37.20;;;24.10;;
48897;SDS011;34713;50.038;20.000;2024-03-23T02:00:10;34.70;;;24.20;;
48897;SDS011;34713;50.038;20.000;2024-03-23T02:02:44;38.70;;;24.70;;
48897;SDS011;34713;50.038;20.000;2024-03-23T02:05:11;37.30;;;24.20;;
48897;SDS011;34713;50.038;20.000;2024-03-23T02:07:38;40.10;;;24.80;;
48897;SDS011;34713;50.038;20.000;2024-03-23T02:10:06;36.90;;;24.30;;
48897;SDS011;34713;50.038;20.000;2024-03-23T02:12:33;36.60;;;25.00;;
48897;SDS011;34713;50.038;20.000;2024-03-23T02:15:00;39.00;;;26.00;;
48897;SDS011;34713;50.038;20.000;2024-03-23T02:17:27;41.10;;;27.80;;
48897;SDS011;34713;50.038;20.000;2024-03-23T02:19:54;38.40;;;26.00;;
48897;SDS011;34713;50.038;20.000;2024-03-23T02:22:21;39.90;;;27.10;;
48897;SDS011;34713;50.038;20.000;2024-03-23T02:24:47;37.20;;;26.20;;
48897;SDS011;34713;50.038;20.000;2024-03-23T02:27:14;38.10;;;26.50;;
48897;SDS011;34713;50.038;20.000;2024-03-23T02:29:40;37.70;;;26.40;;
48897;SDS011;34713;50.038;20.000;2024-03-23T02:32:07;47.10;;;28.50;;
48897;SDS011;34713;50.038;20.000;2024-03-23T02:34:35;41.80;;;27.40;;
48897;SDS011;34713;50.038;20.000;2024-03-23T02:37:02;40.30;;;26.50;;
48897;SDS011;34713;50.038;20.000;2024-03-23T02:39:28;37.70;;;25.30;;
48897;SDS011;34713;50.038;20.000;2024-03-23T02:41:54;38.60;;;25.30;;
48897;SDS011;34713;50.038;20.000;2024-03-23T02:44:21;40.90;;;23.90;;
48897;SDS011;34713;50.038;20.000;2024-03-23T02:46:48;33.70;;;24.00;;
48897;SDS011;34713;50.038;20.000;2024-03-23T02:49:14;36.80;;;24.70;;
48897;SDS011;34713;50.038;20.000;2024-03-23T02:51:40;34.50;;;22.70;;
48897;SDS011;34713;50.038;20.000;2024-03-23T02:54:07;35.90;;;23.80;;
48897;SDS011;34713;50.038;20.000;2024-03-23T02:56:34;34.50;;;22.30;;
48897;SDS011;34713;50.038;20.000;2024-03-23T02:59:00;37.80;;;24.20;;
48897;SDS011;34713;50.038;20.000;2024-03-23T03:01:27;35.40;;;23.40;;
48897;SDS011;34713;50.038;20.000;2024-03-23T03:03:53;33.90;;;22.50;;
48897;SDS011;34713;50.038;20.000;2024-03-23T03:06:26;34.40;;;23.90;;
48897;SDS011;34713;50.038;20.000;2024-03-23T03:08:52;34.10;;;23.80;;
48897;SDS011;34713;50.038;20.000;2024-03-23T03:11:19;37.30;;;25.20;;
48897;SDS011;34713;50.038;20.000;2024-03-23T03:13:45;36.20;;;23.40;;
48897;SDS011;34713;50.038;20.000;2024-03-23T03:16:12;33.00;;;23.50;;
48897;SDS011;34713;50.038;20.000;2024-03-23T03:18:39;34.70;;;23.80;;
48897;SDS011;34713;50.038;20.000;2024-03-23T03:21:06;36.00;;;25.00;;
48897;SDS011;34713;50.038;20.000;2024-03-23T03:23:37;37.70;;;24.60;;
48897;SDS011;34713;50.038;20.000;2024-03-23T03:26:06;36.30;;;23.60;;
48897;SDS011;34713;50.038;20.000;2024-03-23T03:28:33;39.40;;;26.40;;
48897;SDS011;34713;50.038;20.000;2024-03-23T03:31:00;34.30;;;24.60;;
48897;SDS011;34713;50.038;20.000;2024-03-23T03:33:27;34.70;;;23.50;;
48897;SDS011;34713;50.038;20.000;2024-03-23T03:35:54;36.40;;;24.50;;
48897;SDS011;34713;50.038;20.000;2024-03-23T03:38:21;37.60;;;25.80;;
48897;SDS011;34713;50.038;20.000;2024-03-23T03:40:47;34.50;;;24.80;;
48897;SDS011;34713;50.038;20.000;2024-03-23T03:43:14;37.70;;;25.50;;
48897;SDS011;34713;50.038;20.000;2024-03-23T03:45:40;34.80;;;24.50;;
48897;SDS011;34713;50.038;20.000;2024-03-23T03:48:07;39.60;;;24.90;;
48897;SDS011;34713;50.038;20.000;2024-03-23T03:50:34;39.60;;;24.90;;
48897;SDS011;34713;50.038;20.000;2024-03-23T03:53:00;35.30;;;24.40;;
48897;SDS011;34713;50.038;20.000;2024-03-23T03:55:26;37.00;;;25.10;;
48897;SDS011;34713;50.038;20.000;2024-03-23T03:57:53;37.00;;;23.80;;
48897;SDS011;34713;50.038;20.000;2024-03-23T04:00:20;38.10;;;24.40;;
48897;SDS011;34713;50.038;20.000;2024-03-23T04:02:46;37.70;;;23.50;;
48897;SDS011;34713;50.038;20.000;2024-03-23T04:05:13;39.20;;;24.30;;
48897;SDS011;34713;50.038;20.000;2024-03-23T04:07:39;36.10;;;22.10;;
48897;SDS011;34713;50.038;20.000;2024-03-23T04:10:06;38.50;;;23.10;;
48897;SDS011;34713;50.038;20.000;2024-03-23T04:12:34;39.50;;;24.40;;
48897;SDS011;34713;50.038;20.000;2024-03-23T04:15:00;37.20;;;24.60;;
48897;SDS011;34713;50.038;20.000;2024-03-23T04:17:29;41.70;;;24.10;;
48897;SDS011;34713;50.038;20.000;2024-03-23T04:19:58;38.70;;;23.80;;
48897;SDS011;34713;50.038;20.000;2024-03-23T04:22:24;35.90;;;23.40;;
48897;SDS011;34713;50.038;20.000;2024-03-23T04:24:55;42.50;;;23.60;;
48897;SDS011;34713;50.038;20.000;2024-03-23T04:27:22;38.50;;;22.30;;
48897;SDS011;34713;50.038;20.000;2024-03-23T04:29:49;34.90;;;23.20;;
48897;SDS011;34713;50.038;20.000;2024-03-23T04:32:16;39.10;;;23.40;;
48897;SDS011;34713;50.038;20.000;2024-03-23T04:34:44;38.50;;;23.40;;
48897;SDS011;34713;50.038;20.000;2024-03-23T04:37:10;38.20;;;23.70;;
48897;SDS011;34713;50.038;20.000;2024-03-23T04:39:37;40.40;;;22.50;;
48897;SDS011;34713;50.038;20.000;2024-03-23T04:42:04;33.20;;;22.70;;
48897;SDS011;34713;50.038;20.000;2024-03-23T04:44:31;46.80;;;23.70;;
48897;SDS011;34713;50.038;20.000;2024-03-23T04:46:57;46.70;;;22.80;;
48897;SDS011;34713;50.038;20.000;2024-03-23T04:49:24;42.10;;;24.00;;
48897;SDS011;34713;50.038;20.000;2024-03-23T04:51:50;36.70;;;24.00;;
48897;SDS011;34713;50.038;20.000;2024-03-23T04:54:17;42.50;;;24.20;;
48897;SDS011;34713;50.038;20.000;2024-03-23T04:56:43;37.80;;;23.60;;
48897;SDS011;34713;50.038;20.000;2024-03-23T04:59:10;38.40;;;23.20;;
48897;SDS011;34713;50.038;20.000;2024-03-23T05:01:37;38.20;;;24.70;;
48897;SDS011;34713;50.038;20.000;2024-03-23T05:04:06;34.50;;;24.40;;
48897;SDS011;34713;50.038;20.000;2024-03-23T05:06:32;35.20;;;23.60;;
48897;SDS011;34713;50.038;20.000;2024-03-23T05:09:00;34.30;;;23.00;;
48897;SDS011;34713;50.038;20.000;2024-03-23T05:11:32;41.30;;;24.70;;
48897;SDS011;34713;50.038;20.000;2024-03-23T05:14:01;37.60;;;23.70;;
48897;SDS011;34713;50.038;20.000;2024-03-23T05:16:29;36.80;;;23.90;;
48897;SDS011;34713;50.038;20.000;2024-03-23T05:18:55;37.40;;;23.50;;
48897;SDS011;34713;50.038;20.000;2024-03-23T05:21:22;34.40;;;23.00;;
48897;SDS011;34713;50.038;20.000;2024-03-23T05:23:48;34.60;;;23.30;;
48897;SDS011;34713;50.038;20.000;2024-03-23T05:26:15;35.70;;;23.10;;
48897;SDS011;34713;50.038;20.000;2024-03-23T05:28:41;34.80;;;24.00;;
48897;SDS011;34713;50.038;20.000;2024-03-23T05:31:08;35.10;;;22.80;;
48897;SDS011;34713;50.038;20.000;2024-03-23T05:33:36;39.10;;;24.30;;
48897;SDS011;34713;50.038;20.000;2024-03-23T05:36:04;34.90;;;23.50;;
48897;SDS011;34713;50.038;20.000;2024-03-23T05:38:31;35.40;;;22.80;;
48897;SDS011;34713;50.038;20.000;2024-03-23T05:40:58;30.00;;;22.80;;
48897;SDS011;34713;50.038;20.000;2024-03-23T05:43:25;37.10;;;23.70;;
48897;SDS011;34713;50.038;20.000;2024-03-23T05:45:55;36.30;;;23.70;;
48897;SDS011;34713;50.038;20.000;2024-03-23T05:48:22;33.10;;;22.10;;
48897;SDS011;34713;50.038;20.000;2024-03-23T05:50:49;35.80;;;23.10;;
48897;SDS011;34713;50.038;20.000;2024-03-23T05:53:16;34.00;;;23.10;;
48897;SDS011;34713;50.038;20.000;2024-03-23T05:55:43;31.50;;;22.70;;
48897;SDS011;34713;50.038;20.000;2024-03-23T05:58:09;37.20;;;23.40;;
48897;SDS011;34713;50.038;20.000;2024-03-23T06:00:36;33.60;;;22.80;;
48897;SDS011;34713;50.038;20.000;2024-03-23T06:03:02;34.40;;;22.00;;
48897;SDS011;34713;50.038;20.000;2024-03-23T06:05:29;36.60;;;23.00;;
48897;SDS011;34713;50.038;20.000;2024-03-23T06:07:55;32.90;;;22.40;;
48897;SDS011;34713;50.038;20.000;2024-03-23T06:10:22;32.70;;;22.30;;
48897;SDS011;34713;50.038;20.000;2024-03-23T06:12:49;36.70;;;23.70;;
48897;SDS011;34713;50.038;20.000;2024-03-23T06:15:18;36.70;;;22.00;;
48897;SDS011;34713;50.038;20.000;2024-03-23T06:17:45;38.90;;;22.20;;
48897;SDS011;34713;50.038;20.000;2024-03-23T06:20:12;39.20;;;22.90;;
48897;SDS011;34713;50.038;20.000;2024-03-23T06:22:39;37.60;;;22.20;;
48897;SDS011;34713;50.038;20.000;2024-03-23T06:25:05;31.60;;;22.30;;
48897;SDS011;34713;50.038;20.000;2024-03-23T06:27:32;34.90;;;23.30;;
48897;SDS011;34713;50.038;20.000;2024-03-23T06:29:59;34.10;;;23.50;;
48897;SDS011;34713;50.038;20.000;2024-03-23T06:32:27;34.30;;;23.00;;
48897;SDS011;34713;50.038;20.000;2024-03-23T06:34:55;34.20;;;22.30;;
48897;SDS011;34713;50.038;20.000;2024-03-23T06:37:21;32.90;;;22.90;;
48897;SDS011;34713;50.038;20.000;2024-03-23T06:39:47;32.20;;;21.40;;
48897;SDS011;34713;50.038;20.000;2024-03-23T06:42:14;34.50;;;22.60;;
48897;SDS011;34713;50.038;20.000;2024-03-23T06:44:40;36.50;;;24.10;;
48897;SDS011;34713;50.038;20.000;2024-03-23T06:47:07;31.50;;;21.10;;
48897;SDS011;34713;50.038;20.000;2024-03-23T06:49:33;32.10;;;21.00;;
48897;SDS011;34713;50.038;20.000;2024-03-23T06:52:00;31.80;;;20.40;;
48897;SDS011;34713;50.038;20.000;2024-03-23T06:54:26;31.40;;;20.40;;
48897;SDS011;34713;50.038;20.000;2024-03-23T06:56:53;29.10;;;19.00;;
48897;SDS011;34713;50.038;20.000;2024-03-23T06:59:19;30.90;;;19.70;;
48897;SDS011;34713;50.038;20.000;2024-03-23T07:01:45;32.00;;;19.70;;
48897;SDS011;34713;50.038;20.000;2024-03-23T07:04:12;32.50;;;19.90;;
48897;SDS011;34713;50.038;20.000;2024-03-23T07:06:45;33.00;;;20.10;;
48897;SDS011;34713;50.038;20.000;2024-03-23T07:09:11;27.80;;;18.90;;
48897;SDS011;34713;50.038;20.000;2024-03-23T07:11:38;29.00;;;20.40;;
48897;SDS011;34713;50.038;20.000;2024-03-23T07:14:04;32.10;;;20.20;;
48897;SDS011;34713;50.038;20.000;2024-03-23T07:16:31;30.10;;;21.10;;
48897;SDS011;34713;50.038;20.000;2024-03-23T07:18:57;31.00;;;21.80;;
48897;SDS011;34713;50.038;20.000;2024-03-23T07:21:24;37.30;;;23.10;;
48897;SDS011;34713;50.038;20.000;2024-03-23T07:23:51;31.30;;;23.50;;
48897;SDS011;34713;50.038;20.000;2024-03-23T07:26:17;37.10;;;22.90;;
48897;SDS011;34713;50.038;20.000;2024-03-23T07:28:44;30.30;;;22.10;;
48897;SDS011;34713;50.038;20.000;2024-03-23T07:31:13;30.70;;;21.90;;
48897;SDS011;34713;50.038;20.000;2024-03-23T07:33:47;36.70;;;24.90;;
48897;SDS011;34713;50.038;20.000;2024-03-23T07:36:14;36.10;;;23.80;;
48897;SDS011;34713;50.038;20.000;2024-03-23T07:38:41;34.40;;;23.50;;
48897;SDS011;34713;50.038;20.000;2024-03-23T07:41:09;33.80;;;23.00;;
48897;SDS011;34713;50.038;20.000;2024-03-23T07:43:39;32.60;;;24.20;;
48897;SDS011;34713;50.038;20.000;2024-03-23T07:46:09;36.20;;;24.50;;
48897;SDS011;34713;50.038;20.000;2024-03-23T07:48:35;33.00;;;24.10;;
48897;SDS011;34713;50.038;20.000;2024-03-23T07:51:06;38.00;;;24.60;;
48897;SDS011;34713;50.038;20.000;2024-03-23T07:53:34;34.90;;;24.20;;
48897;SDS011;34713;50.038;20.000;2024-03-23T07:56:05;35.30;;;22.00;;
48897;SDS011;34713;50.038;20.000;2024-03-23T07:58:32;35.20;;;23.00;;
48897;SDS011;34713;50.038;20.000;2024-03-23T08:01:05;34.60;;;22.50;;
48897;SDS011;34713;50.038;20.000;2024-03-23T08:03:36;35.70;;;21.10;;
48897;SDS011;34713;50.038;20.000;2024-03-23T08:06:16;29.90;;;19.90;;
48897;SDS011;34713;50.038;20.000;2024-03-23T08:08:44;33.90;;;21.30;;
48897;SDS011;34713;50.038;20.000;2024-03-23T08:11:11;29.80;;;20.30;;
48897;SDS011;34713;50.038;20.000;2024-03-23T08:13:39;31.20;;;20.60;;
48897;SDS011;34713;50.038;20.000;2024-03-23T08:16:06;32.40;;;20.40;;
48897;SDS011;34713;50.038;20.000;2024-03-23T08:18:33;30.80;;;19.40;;
48897;SDS011;34713;50.038;20.000;2024-03-23T08:20:59;28.60;;;20.10;;
48897;SDS011;34713;50.038;20.000;2024-03-23T08:23:30;30.10;;;21.70;;
48897;SDS011;34713;50.038;20.000;2024-03-23T08:26:03;31.00;;;22.10;;
48897;SDS011;34713;50.038;20.000;2024-03-23T08:28:31;32.20;;;22.20;;
48897;SDS011;34713;50.038;20.000;2024-03-23T08:31:00;28.70;;;20.80;;
48897;SDS011;34713;50.038;20.000;2024-03-23T08:33:27;29.80;;;20.80;;
48897;SDS011;34713;50.038;20.000;2024-03-23T08:35:56;31.50;;;21.70;;
48897;SDS011;34713;50.038;20.000;2024-03-23T08:38:27;30.20;;;20.40;;
48897;SDS011;34713;50.038;20.000;2024-03-23T08:41:11;29.80;;;20.40;;
48897;SDS011;34713;50.038;20.000;2024-03-23T08:43:39;28.60;;;20.00;;
48897;SDS011;34713;50.038;20.000;2024-03-23T08:46:09;31.40;;;19.60;;
48897;SDS011;34713;50.038;20.000;2024-03-23T08:48:38;34.70;;;20.40;;
48897;SDS011;34713;50.038;20.000;2024-03-23T08:51:13;30.40;;;19.50;;
48897;SDS011;34713;50.038;20.000;2024-03-23T08:53:40;27.40;;;18.60;;
48897;SDS011;34713;50.038;20.000;2024-03-23T08:56:07;25.90;;;18.30;;
48897;SDS011;34713;50.038;20.000;2024-03-23T08:58:34;27.10;;;17.70;;
48897;SDS011;34713;50.038;20.000;2024-03-23T09:01:06;27.10;;;19.20;;
48897;SDS011;34713;50.038;20.000;2024-03-23T09:03:33;24.70;;;17.60;;
48897;SDS011;34713;50.038;20.000;2024-03-23T09:06:02;26.20;;;18.50;;
48897;SDS011;34713;50.038;20.000;2024-03-23T09:08:32;26.70;;;17.40;;
48897;SDS011;34713;50.038;20.000;2024-03-23T09:11:00;23.60;;;16.60;;
48897;SDS011;34713;50.038;20.000;2024-03-23T09:13:32;23.90;;;17.30;;
48897;SDS011;34713;50.038;20.000;2024-03-23T09:16:02;22.50;;;16.40;;
48897;SDS011;34713;50.038;20.000;2024-03-23T09:18:31;28.90;;;16.40;;
48897;SDS011;34713;50.038;20.000;2024-03-23T09:20:58;21.80;;;14.60;;
48897;SDS011;34713;50.038;20.000;2024-03-23T09:23:24;20.40;;;15.30;;
48897;SDS011;34713;50.038;20.000;2024-03-23T09:25:51;22.20;;;16.10;;
48897;SDS011;34713;50.038;20.000;2024-03-23T09:28:17;22.80;;;15.00;;
48897;SDS011;34713;50.038;20.000;2024-03-23T09:30:44;19.80;;;15.00;;
48897;SDS011;34713;50.038;20.000;2024-03-23T09:33:10;29.00;;;16.90;;
48897;SDS011;34713;50.038;20.000;2024-03-23T09:35:41;23.90;;;14.70;;
48897;SDS011;34713;50.038;20.000;2024-03-23T09:38:13;22.60;;;14.70;;
48897;SDS011;34713;50.038;20.000;2024-03-23T09:40:40;22.30;;;14.60;;
48897;SDS011;34713;50.038;20.000;2024-03-23T09:43:07;25.20;;;14.90;;
48897;SDS011;34713;50.038;20.000;2024-03-23T09:45:35;18.00;;;13.90;;
48897;SDS011;34713;50.038;20.000;2024-03-23T09:48:04;19.20;;;13.80;;
48897;SDS011;34713;50.038;20.000;2024-03-23T09:50:32;22.10;;;13.60;;
48897;SDS011;34713;50.038;20.000;2024-03-23T09:52:58;21.50;;;13.70;;
48897;SDS011;34713;50.038;20.000;2024-03-23T09:55:24;17.90;;;13.50;;
48897;SDS011;34713;50.038;20.000;2024-03-23T09:57:51;21.30;;;13.90;;
48897;SDS011;34713;50.038;20.000;2024-03-23T10:00:18;20.00;;;13.20;;
48897;SDS011;34713;50.038;20.000;2024-03-23T10:02:44;16.50;;;12.20;;
48897;SDS011;34713;50.038;20.000;2024-03-23T10:05:21;20.10;;;12.70;;
48897;SDS011;34713;50.038;20.000;2024-03-23T10:07:52;15.00;;;12.30;;
48897;SDS011;34713;50.038;20.000;2024-03-23T10:10:18;15.30;;;10.70;;
48897;SDS011;34713;50.038;20.000;2024-03-23T10:12:45;12.70;;;8.90;;
48897;SDS011;34713;50.038;20.000;2024-03-23T10:15:19;12.30;;;6.50;;
48897;SDS011;34713;50.038;20.000;2024-03-23T10:17:50;6.60;;;4.30;;
48897;SDS011;34713;50.038;20.000;2024-03-23T10:20:20;7.00;;;3.30;;
48897;SDS011;34713;50.038;20.000;2024-03-23T10:22:49;4.80;;;3.00;;
48897;SDS011;34713;50.038;20.000;2024-03-23T10:25:16;4.80;;;3.40;;
48897;SDS011;34713;50.038;20.000;2024-03-23T10:27:43;4.50;;;3.00;;
48897;SDS011;34713;50.038;20.000;2024-03-23T10:30:13;5.10;;;3.10;;
48897;SDS011;34713;50.038;20.000;2024-03-23T10:32:43;8.70;;;3.00;;
48897;SDS011;34713;50.038;20.000;2024-03-23T10:35:21;4.90;;;3.10;;
48897;SDS011;34713;50.038;20.000;2024-03-23T10:37:48;7.10;;;2.90;;
48897;SDS011;34713;50.038;20.000;2024-03-23T10:40:18;4.30;;;2.50;;
48897;SDS011;34713;50.038;20.000;2024-03-23T10:42:44;5.50;;;2.60;;
48897;SDS011;34713;50.038;20.000;2024-03-23T10:45:11;3.90;;;2.80;;
48897;SDS011;34713;50.038;20.000;2024-03-23T10:47:37;8.30;;;2.80;;
48897;SDS011;34713;50.038;20.000;2024-03-23T10:50:04;6.00;;;2.80;;
48897;SDS011;34713;50.038;20.000;2024-03-23T10:52:33;4.90;;;3.50;;
48897;SDS011;34713;50.038;20.000;2024-03-23T10:55:04;4.20;;;2.40;;
48897;SDS011;34713;50.038;20.000;2024-03-23T10:57:42;6.90;;;2.80;;
48897;SDS011;34713;50.038;20.000;2024-03-23T11:00:11;5.60;;;2.40;;
48897;SDS011;34713;50.038;20.000;2024-03-23T11:02:38;8.90;;;3.70;;
48897;SDS011;34713;50.038;20.000;2024-03-23T11:07:50;3.70;;;2.70;;
48897;SDS011;34713;50.038;20.000;2024-03-23T11:10:35;5.00;;;2.70;;
48897;SDS011;34713;50.038;20.000;2024-03-23T11:16:08;7.30;;;2.70;;
48897;SDS011;34713;50.038;20.000;2024-03-23T11:18:39;6.50;;;3.50;;
48897;SDS011;34713;50.038;20.000;2024-03-23T11:21:09;3.80;;;2.80;;
48897;SDS011;34713;50.038;20.000;2024-03-23T11:23:36;5.50;;;2.50;;
48897;SDS011;34713;50.038;20.000;2024-03-23T11:26:06;3.40;;;2.30;;
48897;SDS011;34713;50.038;20.000;2024-03-23T11:28:33;4.70;;;2.70;;
48897;SDS011;34713;50.038;20.000;2024-03-23T11:30:59;4.10;;;2.50;;
48897;SDS011;34713;50.038;20.000;2024-03-23T11:33:26;4.40;;;3.50;;
48897;SDS011;34713;50.038;20.000;2024-03-23T11:35:52;5.10;;;2.80;;
48897;SDS011;34713;50.038;20.000;2024-03-23T11:38:18;5.00;;;3.00;;
48897;SDS011;34713;50.038;20.000;2024-03-23T11:40:48;5.20;;;2.60;;
48897;SDS011;34713;50.038;20.000;2024-03-23T11:43:16;3.60;;;2.50;;
48897;SDS011;34713;50.038;20.000;2024-03-23T11:45:44;4.40;;;2.30;;
48897;SDS011;34713;50.038;20.000;2024-03-23T11:48:15;3.20;;;2.30;;
48897;SDS011;34713;50.038;20.000;2024-03-23T11:50:47;3.70;;;2.50;;
48897;SDS011;34713;50.038;20.000;2024-03-23T11:53:16;3.40;;;2.30;;
48897;SDS011;34713;50.038;20.000;2024-03-23T11:58:16;3.80;;;2.20;;
48897;SDS011;34713;50.038;20.000;2024-03-23T12:00:54;5.40;;;2.20;;
48897;SDS011;34713;50.038;20.000;2024-03-23T12:03:22;3.20;;;1.90;;
48897;SDS011;34713;50.038;20.000;2024-03-23T12:05:53;2.00;;;1.60;;
48897;SDS011;34713;50.038;20.000;2024-03-23T12:08:21;3.30;;;2.00;;
48897;SDS011;34713;50.038;20.000;2024-03-23T12:10:50;3.40;;;2.10;;
48897;SDS011;34713;50.038;20.000;2024-03-23T12:13:21;2.90;;;1.80;;
48897;SDS011;34713;50.038;20.000;2024-03-23T12:15:49;3.40;;;1.90;;
48897;SDS011;34713;50.038;20.000;2024-03-23T12:18:17;4.00;;;1.90;;
48897;SDS011;34713;50.038;20.000;2024-03-23T12:20:43;4.50;;;2.00;;
48897;SDS011;34713;50.038;20.000;2024-03-23T12:23:11;4.00;;;2.00;;
48897;SDS011;34713;50.038;20.000;2024-03-23T12:25:38;4.70;;;1.90;;
48897;SDS011;34713;50.038;20.000;2024-03-23T12:28:06;2.90;;;1.90;;
48897;SDS011;34713;50.038;20.000;2024-03-23T12:30:33;2.60;;;1.70;;
48897;SDS011;34713;50.038;20.000;2024-03-23T12:33:06;3.00;;;1.60;;
48897;SDS011;34713;50.038;20.000;2024-03-23T12:35:33;3.80;;;2.00;;
48897;SDS011;34713;50.038;20.000;2024-03-23T12:38:00;6.90;;;1.60;;
48897;SDS011;34713;50.038;20.000;2024-03-23T12:40:26;5.90;;;1.20;;
48897;SDS011;34713;50.038;20.000;2024-03-23T12:42:54;19.00;;;2.20;;
48897;SDS011;34713;50.038;20.000;2024-03-23T12:45:20;2.80;;;1.70;;
48897;SDS011;34713;50.038;20.000;2024-03-23T12:47:47;5.20;;;1.50;;
48897;SDS011;34713;50.038;20.000;2024-03-23T12:50:13;2.60;;;1.30;;
48897;SDS011;34713;50.038;20.000;2024-03-23T12:52:40;5.30;;;1.30;;
48897;SDS011;34713;50.038;20.000;2024-03-23T12:55:06;4.20;;;1.50;;
48897;SDS011;34713;50.038;20.000;2024-03-23T12:57:33;2.40;;;1.50;;
48897;SDS011;34713;50.038;20.000;2024-03-23T12:59:59;1.90;;;1.10;;
48897;SDS011;34713;50.038;20.000;2024-03-23T13:02:26;1.80;;;1.40;;
48897;SDS011;34713;50.038;20.000;2024-03-23T13:04:53;3.40;;;1.10;;
48897;SDS011;34713;50.038;20.000;2024-03-23T13:07:20;2.60;;;1.40;;
48897;SDS011;34713;50.038;20.000;2024-03-23T13:09:49;3.00;;;1.50;;
48897;SDS011;34713;50.038;20.000;2024-03-23T13:12:16;2.50;;;1.40;;
48897;SDS011;34713;50.038;20.000;2024-03-23T13:14:45;2.80;;;1.30;;
48897;SDS011;34713;50.038;20.000;2024-03-23T13:17:11;4.10;;;1.30;;
48897;SDS011;34713;50.038;20.000;2024-03-23T13:19:38;3.60;;;1.10;;
48897;SDS011;34713;50.038;20.000;2024-03-23T13:22:05;3.80;;;1.50;;
48897;SDS011;34713;50.038;20.000;2024-03-23T13:24:31;4.20;;;1.60;;
48897;SDS011;34713;50.038;20.000;2024-03-23T13:26:58;6.30;;;2.10;;
48897;SDS011;34713;50.038;20.000;2024-03-23T13:29:24;2.40;;;1.80;;
48897;SDS011;34713;50.038;20.000;2024-03-23T13:31:51;2.70;;;1.80;;
48897;SDS011;34713;50.038;20.000;2024-03-23T13:34:18;5.80;;;1.80;;
48897;SDS011;34713;50.038;20.000;2024-03-23T13:36:45;5.10;;;1.90;;
48897;SDS011;34713;50.038;20.000;2024-03-23T13:39:11;2.50;;;1.70;;
48897;SDS011;34713;50.038;20.000;2024-03-23T13:41:38;3.20;;;1.60;;
48897;SDS011;34713;50.038;20.000;2024-03-23T13:44:09;4.50;;;1.70;;
48897;SDS011;34713;50.038;20.000;2024-03-23T13:46:39;4.40;;;1.70;;
48897;SDS011;34713;50.038;20.000;2024-03-23T13:49:06;2.80;;;1.70;;
48897;SDS011;34713;50.038;20.000;2024-03-23T13:51:33;3.60;;;1.80;;
48897;SDS011;34713;50.038;20.000;2024-03-23T13:53:59;4.10;;;2.20;;
48897;SDS011;34713;50.038;20.000;2024-03-23T13:56:28;3.80;;;1.40;;
48897;SDS011;34713;50.038;20.000;2024-03-23T13:58:58;2.40;;;1.80;;
48897;SDS011;34713;50.038;20.000;2024-03-23T14:01:24;4.10;;;1.80;;
48897;SDS011;34713;50.038;20.000;2024-03-23T14:03:50;3.00;;;1.70;;
48897;SDS011;34713;50.038;20.000;2024-03-23T14:06:17;3.90;;;1.50;;
48897;SDS011;34713;50.038;20.000;2024-03-23T14:08:43;4.60;;;1.70;;
48897;SDS011;34713;50.038;20.000;2024-03-23T14:11:10;3.80;;;1.30;;
48897;SDS011;34713;50.038;20.000;2024-03-23T14:13:36;4.70;;;1.30;;
48897;SDS011;34713;50.038;20.000;2024-03-23T14:16:03;2.80;;;1.20;;
48897;SDS011;34713;50.038;20.000;2024-03-23T14:18:30;1.80;;;1.10;;
48897;SDS011;34713;50.038;20.000;2024-03-23T14:20:58;4.70;;;1.00;;
48897;SDS011;34713;50.038;20.000;2024-03-23T14:23:25;5.80;;;1.30;;
48897;SDS011;34713;50.038;20.000;2024-03-23T14:25:53;3.50;;;1.40;;
48897;SDS011;34713;50.038;20.000;2024-03-23T14:28:20;3.10;;;1.00;;
48897;SDS011;34713;50.038;20.000;2024-03-23T14:30:48;4.10;;;1.40;;
48897;SDS011;34713;50.038;20.000;2024-03-23T14:33:16;4.70;;;1.50;;
48897;SDS011;34713;50.038;20.000;2024-03-23T14:35:43;3.00;;;1.20;;
48897;SDS011;34713;50.038;20.000;2024-03-23T14:38:10;11.60;;;2.50;;
48897;SDS011;34713;50.038;20.000;2024-03-23T14:40:36;2.50;;;1.60;;
48897;SDS011;34713;50.038;20.000;2024-03-23T14:43:03;7.80;;;1.70;;
48897;SDS011;34713;50.038;20.000;2024-03-23T14:45:29;29.70;;;2.70;;
48897;SDS011;34713;50.038;20.000;2024-03-23T14:47:55;23.50;;;2.80;;
48897;SDS011;34713;50.038;20.000;2024-03-23T14:50:24;16.50;;;1.60;;
48897;SDS011;34713;50.038;20.000;2024-03-23T14:52:50;9.10;;;1.80;;
48897;SDS011;34713;50.038;20.000;2024-03-23T14:55:17;3.10;;;0.80;;
48897;SDS011;34713;50.038;20.000;2024-03-23T14:57:44;3.80;;;0.70;;
48897;SDS011;34713;50.038;20.000;2024-03-23T15:00:10;4.10;;;0.80;;
48897;SDS011;34713;50.038;20.000;2024-03-23T15:02:38;4.10;;;0.60;;
48897;SDS011;34713;50.038;20.000;2024-03-23T15:05:05;7.10;;;0.90;;
48897;SDS011;34713;50.038;20.000;2024-03-23T15:07:36;2.10;;;0.70;;
48897;SDS011;34713;50.038;20.000;2024-03-23T15:10:05;3.60;;;0.60;;
48897;SDS011;34713;50.038;20.000;2024-03-23T15:12:32;3.10;;;0.80;;
48897;SDS011;34713;50.038;20.000;2024-03-23T15:14:59;2.30;;;0.70;;
48897;SDS011;34713;50.038;20.000;2024-03-23T15:17:26;2.10;;;0.80;;
48897;SDS011;34713;50.038;20.000;2024-03-23T15:19:53;1.70;;;0.60;;
48897;SDS011;34713;50.038;20.000;2024-03-23T15:22:20;3.00;;;0.80;;